Nrc Patriot II — WDA8587 — position and weather

sailwx.info

Track history (hours):
 
Tides and Currents Weather Stations Pressure Air Temp Water Temp Dewpoint Dewpoint Depression Visibility Wind Speed Wind Dir Waves Ship Positions

Nrc Patriot II

Owner: National Response Corporation, HOUSTON, TX. More information available from US FCC via Universal Licensing System and Coast Guard Vessel Documentation Center.

Last reported at 2015-Feb-27 07:33 UTC. Time now 2015-Mar-01 00:40 UTC.
Position N 33°44' W 118°16'.

Length 30 m; draft 3.5 m.

Type: Port tender. MMSI: 366855940.

Date/timePositionNaut miles runAvg speedWind from/ knotsBaromVisibWave heightAir tempDewpointWater temp
2015-Feb-27 07:33N 33°44' W 118°16'0 0.0
2015-Feb-27 06:29N 33°44' W 118°16'0 0.0
2015-Feb-27 05:33N 33°44' W 118°16'0 0.0
2015-Feb-27 04:33N 33°44' W 118°16'0 0.0
2015-Feb-27 03:33N 33°44' W 118°16'0 0.0
2015-Feb-27 02:23N 33°44' W 118°16'0 0.0
2015-Feb-27 01:33N 33°44' W 118°16'0 0.0
2015-Feb-27 00:34N 33°44' W 118°16'0 0.0
2015-Feb-26 22:29N 33°44' W 118°16'0 0.0
2015-Feb-26 21:27N 33°44' W 118°16'0 0.1
2015-Feb-26 20:24N 33°44' W 118°16'8 9.4
2015-Feb-26 19:34N 33°38' W 118°10'4 2.5
2015-Feb-26 18:09N 33°35' W 118°08'1 1.4
2015-Feb-26 17:14N 33°34' W 118°07'3 4.0
2015-Feb-26 16:32N 33°36' W 118°09'10 4.2
2015-Feb-26 14:10N 33°44' W 118°16'0 0.0
2015-Feb-26 13:22N 33°44' W 118°16'0 0.0
2015-Feb-26 12:33N 33°44' W 118°16'0 0.0
2015-Feb-26 11:33N 33°44' W 118°16'0 0.0
2015-Feb-26 10:23N 33°44' W 118°16'0 0.0
2015-Feb-26 09:32N 33°44' W 118°16'0 0.0
2015-Feb-26 08:30N 33°44' W 118°16'0 0.0
2015-Feb-26 07:31N 33°44' W 118°16'0 0.0
2015-Feb-26 06:33N 33°44' W 118°16'8 7.6
2015-Feb-26 05:31N 33°38' W 118°10'4 3.9
2015-Feb-26 04:34N 33°35' W 118°08'3 3.4
2015-Feb-26 03:34N 33°38' W 118°10'8 8.2
2015-Feb-26 02:34N 33°44' W 118°16'0 0.0
2015-Feb-26 01:31N 33°44' W 118°16'0 0.0
2015-Feb-25 23:06N 33°44' W 118°16'0 0.0
2015-Feb-25 22:34N 33°44' W 118°16'0 0.0
2015-Feb-25 21:34N 33°44' W 118°16'0 0.0
2015-Feb-25 20:33N 33°44' W 118°16'0 0.0
2015-Feb-25 12:14N 33°44' W 118°16'0 0.0
2015-Feb-25 11:29N 33°44' W 118°16'0 0.0
2015-Feb-25 10:23N 33°44' W 118°16'0 0.0
2015-Feb-25 09:33N 33°44' W 118°16'0 0.0
2015-Feb-25 08:06N 33°44' W 118°16'0 0.0
2015-Feb-25 07:12N 33°44' W 118°16'0 0.0
2015-Feb-25 05:34N 33°44' W 118°16'0 0.0
2015-Feb-25 04:33N 33°44' W 118°16'0 0.0
2015-Feb-25 03:33N 33°44' W 118°16'0 0.0
2015-Feb-25 02:11N 33°44' W 118°16'0 0.0
2015-Feb-25 01:33N 33°44' W 118°16'0 0.0
2015-Feb-25 00:34N 33°44' W 118°16'4 4.3
2015-Feb-24 23:34N 33°41' W 118°13'9 8.5
2015-Feb-24 22:33N 33°34' W 118°07'1 1.3
2015-Feb-24 21:31N 33°35' W 118°08'8 8.4
2015-Feb-24 20:32N 33°41' W 118°14'  
2015-Feb-20 21:24N 33°36' W 118°09'10 2.6
2015-Feb-20 17:32N 33°44' W 118°16'0 0.0
2015-Feb-20 16:23N 33°44' W 118°16'0 0.0
2015-Feb-20 13:06N 33°44' W 118°16'0 0.0
2015-Feb-20 12:29N 33°44' W 118°16'0 0.0
2015-Feb-20 11:30N 33°44' W 118°16'1 0.2
2015-Feb-20 08:08N 33°43' W 118°16'6 9.5
2015-Feb-20 07:29N 33°38' W 118°12'5 5.1
2015-Feb-20 06:33N 33°35' W 118°08'7 7.4
2015-Feb-20 05:33N 33°41' W 118°13'4 4.2
2015-Feb-20 04:33N 33°44' W 118°16'0 0.0
2015-Feb-19 22:32N 33°44' W 118°16'0 0.0
2015-Feb-19 21:31N 33°44' W 118°16'0 0.0
2015-Feb-19 20:23N 33°44' W 118°16'0 0.0
2015-Feb-19 19:30N 33°44' W 118°16'0 0.0
2015-Feb-19 18:30N 33°44' W 118°16'0 0.0
2015-Feb-19 16:24N 33°44' W 118°16'0 0.0
2015-Feb-19 09:18N 33°44' W 118°16'1 0.6
2015-Feb-19 07:05N 33°43' W 118°16'6 9.6
2015-Feb-19 06:26N 33°38' W 118°11'4 4.6
2015-Feb-19 05:33N 33°35' W 118°08'0 0.1
2015-Feb-19 04:06N 33°35' W 118°08'4 7.6
2015-Feb-19 03:33N 33°38' W 118°11'7 3.0
2015-Feb-19 01:05N 33°44' W 118°16'0 0.0
2015-Feb-19 00:32N 33°44' W 118°16'0 0.0
2015-Feb-18 23:08N 33°44' W 118°16'0 0.0
2015-Feb-18 21:12N 33°44' W 118°16'0 0.3
2015-Feb-18 19:24N 33°44' W 118°16'0 0.3
2015-Feb-18 18:04N 33°44' W 118°16'8 0.9
2015-Feb-18 09:12N 33°38' W 118°10'6 8.1
2015-Feb-18 08:30N 33°43' W 118°15'2 1.6
2015-Feb-18 07:23N 33°44' W 118°16'7 8.3
2015-Feb-18 06:33N 33°38' W 118°11'5 4.7
2015-Feb-18 05:33N 33°35' W 118°08'6 5.4
2015-Feb-18 04:27N 33°39' W 118°13'  
Track history (hours):
 
Tides and Currents Weather Stations Pressure Air Temp Water Temp Dewpoint Dewpoint Depression Visibility Wind Speed Wind Dir Waves Ship Positions

Nrc Patriot II

Owner: National Response Corporation, HOUSTON, TX. More information available from US FCC via Universal Licensing System and Coast Guard Vessel Documentation Center.

Last reported at 2015-Feb-27 07:33 UTC. Time now 2015-Mar-01 00:40 UTC.
Position N 33°44' W 118°16'.

Length 30 m; draft 3.5 m.

Type: Port tender. MMSI: 366855940.

Date/timePositionNaut miles runAvg speedWind from/ knotsBaromVisibWave heightAir tempDewpointWater temp
2015-Feb-27 07:33N 33°44' W 118°16'0 0.0
2015-Feb-27 06:29N 33°44' W 118°16'0 0.0
2015-Feb-27 05:33N 33°44' W 118°16'0 0.0
2015-Feb-27 04:33N 33°44' W 118°16'0 0.0
2015-Feb-27 03:33N 33°44' W 118°16'0 0.0
2015-Feb-27 02:23N 33°44' W 118°16'0 0.0
2015-Feb-27 01:33N 33°44' W 118°16'0 0.0
2015-Feb-27 00:34N 33°44' W 118°16'0 0.0
2015-Feb-26 22:29N 33°44' W 118°16'0 0.0
2015-Feb-26 21:27N 33°44' W 118°16'0 0.1
2015-Feb-26 20:24N 33°44' W 118°16'8 9.4
2015-Feb-26 19:34N 33°38' W 118°10'4 2.5
2015-Feb-26 18:09N 33°35' W 118°08'1 1.4
2015-Feb-26 17:14N 33°34' W 118°07'3 4.0
2015-Feb-26 16:32N 33°36' W 118°09'10 4.2
2015-Feb-26 14:10N 33°44' W 118°16'0 0.0
2015-Feb-26 13:22N 33°44' W 118°16'0 0.0
2015-Feb-26 12:33N 33°44' W 118°16'0 0.0
2015-Feb-26 11:33N 33°44' W 118°16'0 0.0
2015-Feb-26 10:23N 33°44' W 118°16'0 0.0
2015-Feb-26 09:32N 33°44' W 118°16'0 0.0
2015-Feb-26 08:30N 33°44' W 118°16'0 0.0
2015-Feb-26 07:31N 33°44' W 118°16'0 0.0
2015-Feb-26 06:33N 33°44' W 118°16'8 7.6
2015-Feb-26 05:31N 33°38' W 118°10'4 3.9
2015-Feb-26 04:34N 33°35' W 118°08'3 3.4
2015-Feb-26 03:34N 33°38' W 118°10'8 8.2
2015-Feb-26 02:34N 33°44' W 118°16'0 0.0
2015-Feb-26 01:31N 33°44' W 118°16'0 0.0
2015-Feb-25 23:06N 33°44' W 118°16'0 0.0
2015-Feb-25 22:34N 33°44' W 118°16'0 0.0
2015-Feb-25 21:34N 33°44' W 118°16'0 0.0
2015-Feb-25 20:33N 33°44' W 118°16'0 0.0
2015-Feb-25 12:14N 33°44' W 118°16'0 0.0
2015-Feb-25 11:29N 33°44' W 118°16'0 0.0
2015-Feb-25 10:23N 33°44' W 118°16'0 0.0
2015-Feb-25 09:33N 33°44' W 118°16'0 0.0
2015-Feb-25 08:06N 33°44' W 118°16'0 0.0
2015-Feb-25 07:12N 33°44' W 118°16'0 0.0
2015-Feb-25 05:34N 33°44' W 118°16'0 0.0
2015-Feb-25 04:33N 33°44' W 118°16'0 0.0
2015-Feb-25 03:33N 33°44' W 118°16'0 0.0
2015-Feb-25 02:11N 33°44' W 118°16'0 0.0
2015-Feb-25 01:33N 33°44' W 118°16'0 0.0
2015-Feb-25 00:34N 33°44' W 118°16'4 4.3
2015-Feb-24 23:34N 33°41' W 118°13'9 8.5
2015-Feb-24 22:33N 33°34' W 118°07'1 1.3
2015-Feb-24 21:31N 33°35' W 118°08'8 8.4
2015-Feb-24 20:32N 33°41' W 118°14'  
2015-Feb-20 21:24N 33°36' W 118°09'10 2.6
2015-Feb-20 17:32N 33°44' W 118°16'0 0.0
2015-Feb-20 16:23N 33°44' W 118°16'0 0.0
2015-Feb-20 13:06N 33°44' W 118°16'0 0.0
2015-Feb-20 12:29N 33°44' W 118°16'0 0.0
2015-Feb-20 11:30N 33°44' W 118°16'1 0.2
2015-Feb-20 08:08N 33°43' W 118°16'6 9.5
2015-Feb-20 07:29N 33°38' W 118°12'5 5.1
2015-Feb-20 06:33N 33°35' W 118°08'7 7.4
2015-Feb-20 05:33N 33°41' W 118°13'4 4.2
2015-Feb-20 04:33N 33°44' W 118°16'0 0.0
2015-Feb-19 22:32N 33°44' W 118°16'0 0.0
2015-Feb-19 21:31N 33°44' W 118°16'0 0.0
2015-Feb-19 20:23N 33°44' W 118°16'0 0.0
2015-Feb-19 19:30N 33°44' W 118°16'0 0.0
2015-Feb-19 18:30N 33°44' W 118°16'0 0.0
2015-Feb-19 16:24N 33°44' W 118°16'0 0.0
2015-Feb-19 09:18N 33°44' W 118°16'1 0.6
2015-Feb-19 07:05N 33°43' W 118°16'6 9.6
2015-Feb-19 06:26N 33°38' W 118°11'4 4.6
2015-Feb-19 05:33N 33°35' W 118°08'0 0.1
2015-Feb-19 04:06N 33°35' W 118°08'4 7.6
2015-Feb-19 03:33N 33°38' W 118°11'7 3.0
2015-Feb-19 01:05N 33°44' W 118°16'0 0.0
2015-Feb-19 00:32N 33°44' W 118°16'0 0.0
2015-Feb-18 23:08N 33°44' W 118°16'0 0.0
2015-Feb-18 21:12N 33°44' W 118°16'0 0.3
2015-Feb-18 19:24N 33°44' W 118°16'0 0.3
2015-Feb-18 18:04N 33°44' W 118°16'8 0.9
2015-Feb-18 09:12N 33°38' W 118°10'6 8.1
2015-Feb-18 08:30N 33°43' W 118°15'2 1.6
2015-Feb-18 07:23N 33°44' W 118°16'7 8.3
2015-Feb-18 06:33N 33°38' W 118°11'5 4.7
2015-Feb-18 05:33N 33°35' W 118°08'6 5.4
2015-Feb-18 04:27N 33°39' W 118°13'  

Dump ship's entire track history